Aviation Digital Data Service (ADDS)

Output produced by METARs form (1102 UTC 30 April 2017)
found at http://www.aviationweather.gov/adds/metars/
 
KATL 300950Z 3010/0112 14006KT P6SM SCT009 BKN250 
     FM301100 14008KT P6SM BKN011 
     FM301500 16010G18KT P6SM BKN035 
     FM301800 16013G23KT P6SM BKN045 
     FM302000 16013G23KT P6SM SCT050 SCT250 
     FM010200 17010G20KT P6SM FEW050 BKN250 
     FM010800 17010G18KT P6SM VCSH SCT012 BKN022 
     PROB30 0110/0112 2SM TSRA BKN012CB OVC022